sensor_id;sensor_type;location;lat;lon;timestamp;pressure;altitude;pressure_sealevel;temperature;humidity
829;BME280;396;52.558;13.188;2023-05-10T00:00:26;100706.16;;;14.19;56.88
829;BME280;396;52.558;13.188;2023-05-10T00:02:53;100701.50;;;14.19;57.01
829;BME280;396;52.558;13.188;2023-05-10T00:05:20;100699.59;;;14.11;56.98
829;BME280;396;52.558;13.188;2023-05-10T00:07:46;100698.63;;;14.07;56.84
829;BME280;396;52.558;13.188;2023-05-10T00:10:13;100694.16;;;14.02;57.34
829;BME280;396;52.558;13.188;2023-05-10T00:12:41;100694.66;;;13.96;57.69
829;BME280;396;52.558;13.188;2023-05-10T00:15:08;100692.09;;;13.99;57.29
829;BME280;396;52.558;13.188;2023-05-10T00:17:35;100684.06;;;14.03;57.67
829;BME280;396;52.558;13.188;2023-05-10T00:20:02;100688.53;;;13.99;57.20
829;BME280;396;52.558;13.188;2023-05-10T00:22:30;100683.09;;;13.99;57.21
829;BME280;396;52.558;13.188;2023-05-10T00:24:56;100672.69;;;14.01;56.97
829;BME280;396;52.558;13.188;2023-05-10T00:27:23;100678.78;;;13.98;56.91
829;BME280;396;52.558;13.188;2023-05-10T00:29:51;100678.31;;;13.96;57.07
829;BME280;396;52.558;13.188;2023-05-10T00:32:17;100666.63;;;13.95;57.30
829;BME280;396;52.558;13.188;2023-05-10T00:34:44;100660.06;;;13.87;57.48
829;BME280;396;52.558;13.188;2023-05-10T00:37:11;100667.72;;;13.85;57.50
829;BME280;396;52.558;13.188;2023-05-10T00:39:37;100665.50;;;13.87;57.57
829;BME280;396;52.558;13.188;2023-05-10T00:42:04;100663.75;;;13.83;57.28
829;BME280;396;52.558;13.188;2023-05-10T00:44:30;100665.66;;;13.82;56.74
829;BME280;396;52.558;13.188;2023-05-10T00:46:59;100663.41;;;13.76;57.45
829;BME280;396;52.558;13.188;2023-05-10T00:49:26;100652.84;;;13.66;57.79
829;BME280;396;52.558;13.188;2023-05-10T00:51:53;100653.00;;;13.69;57.70
829;BME280;396;52.558;13.188;2023-05-10T00:54:19;100658.47;;;13.69;57.88
829;BME280;396;52.558;13.188;2023-05-10T00:56:46;100650.91;;;13.75;57.78
829;BME280;396;52.558;13.188;2023-05-10T00:59:14;100652.22;;;13.77;57.12
829;BME280;396;52.558;13.188;2023-05-10T01:01:42;100650.47;;;13.73;57.47
829;BME280;396;52.558;13.188;2023-05-10T01:04:10;100657.16;;;13.75;57.10
829;BME280;396;52.558;13.188;2023-05-10T01:06:37;100644.19;;;13.72;57.72
829;BME280;396;52.558;13.188;2023-05-10T01:09:04;100646.78;;;13.69;58.10
829;BME280;396;52.558;13.188;2023-05-10T01:11:32;100644.84;;;13.69;57.81
829;BME280;396;52.558;13.188;2023-05-10T01:13:59;100649.31;;;13.65;58.17
829;BME280;396;52.558;13.188;2023-05-10T01:16:26;100639.06;;;13.62;58.83
829;BME280;396;52.558;13.188;2023-05-10T01:18:54;100633.16;;;13.60;59.04
829;BME280;396;52.558;13.188;2023-05-10T01:21:29;100633.63;;;13.53;59.63
829;BME280;396;52.558;13.188;2023-05-10T01:24:14;100633.44;;;13.50;59.33
829;BME280;396;52.558;13.188;2023-05-10T01:27:17;100632.81;;;13.44;59.64
829;BME280;396;52.558;13.188;2023-05-10T01:32:43;100628.97;;;13.36;60.07
829;BME280;396;52.558;13.188;2023-05-10T01:35:16;100627.19;;;13.32;59.28
829;BME280;396;52.558;13.188;2023-05-10T01:37:46;100630.72;;;13.24;59.72
829;BME280;396;52.558;13.188;2023-05-10T01:40:22;100625.72;;;13.17;59.12
829;BME280;396;52.558;13.188;2023-05-10T01:42:52;100620.88;;;13.05;59.81
829;BME280;396;52.558;13.188;2023-05-10T01:45:24;100626.44;;;12.92;60.12
829;BME280;396;52.558;13.188;2023-05-10T01:48:01;100616.88;;;12.94;60.32
829;BME280;396;52.558;13.188;2023-05-10T01:50:30;100628.53;;;12.95;61.26
829;BME280;396;52.558;13.188;2023-05-10T01:52:59;100622.31;;;12.94;61.70
829;BME280;396;52.558;13.188;2023-05-10T01:55:29;100628.53;;;12.95;61.57
829;BME280;396;52.558;13.188;2023-05-10T01:58:02;100622.63;;;12.93;61.53
829;BME280;396;52.558;13.188;2023-05-10T02:00:30;100624.66;;;12.87;61.92
829;BME280;396;52.558;13.188;2023-05-10T02:03:00;100620.53;;;12.90;61.65
829;BME280;396;52.558;13.188;2023-05-10T02:05:32;100626.44;;;12.92;62.06
829;BME280;396;52.558;13.188;2023-05-10T02:07:59;100622.63;;;12.93;62.00
829;BME280;396;52.558;13.188;2023-05-10T02:10:28;100617.03;;;12.98;61.80
829;BME280;396;52.558;13.188;2023-05-10T02:12:55;100621.31;;;12.90;61.38
829;BME280;396;52.558;13.188;2023-05-10T02:15:25;100614.91;;;12.86;61.43
829;BME280;396;52.558;13.188;2023-05-10T02:17:54;100613.16;;;12.81;62.10
829;BME280;396;52.558;13.188;2023-05-10T02:20:23;100611.56;;;12.80;62.29
829;BME280;396;52.558;13.188;2023-05-10T02:22:52;100608.66;;;12.77;62.85
829;BME280;396;52.558;13.188;2023-05-10T02:25:21;100611.81;;;12.70;63.00
829;BME280;396;52.558;13.188;2023-05-10T02:27:48;100607.50;;;12.69;62.86
829;BME280;396;52.558;13.188;2023-05-10T02:30:16;100603.66;;;12.70;62.93
829;BME280;396;52.558;13.188;2023-05-10T02:32:45;100605.44;;;12.66;63.74
829;BME280;396;52.558;13.188;2023-05-10T02:35:12;100605.44;;;12.66;63.14
829;BME280;396;52.558;13.188;2023-05-10T02:37:41;100603.16;;;12.59;63.29
829;BME280;396;52.558;13.188;2023-05-10T02:40:08;100609.72;;;12.58;63.55
829;BME280;396;52.558;13.188;2023-05-10T02:42:37;100610.34;;;12.55;64.00
829;BME280;396;52.558;13.188;2023-05-10T02:45:10;100602.97;;;12.56;63.66
829;BME280;396;52.558;13.188;2023-05-10T02:47:38;100605.41;;;12.57;63.60
829;BME280;396;52.558;13.188;2023-05-10T02:50:05;100593.84;;;12.52;64.65
829;BME280;396;52.558;13.188;2023-05-10T02:52:42;100598.44;;;12.43;64.61
829;BME280;396;52.558;13.188;2023-05-10T02:55:11;100595.59;;;12.48;64.28
829;BME280;396;52.558;13.188;2023-05-10T02:57:41;100601.81;;;12.40;65.35
829;BME280;396;52.558;13.188;2023-05-10T03:00:10;100599.38;;;12.38;64.83
829;BME280;396;52.558;13.188;2023-05-10T03:02:37;100599.53;;;12.33;63.44
829;BME280;396;52.558;13.188;2023-05-10T03:05:04;100596.63;;;12.29;63.67
829;BME280;396;52.558;13.188;2023-05-10T03:07:31;100600.78;;;12.27;63.78
829;BME280;396;52.558;13.188;2023-05-10T03:10:00;100601.72;;;12.22;63.98
829;BME280;396;52.558;13.188;2023-05-10T03:12:33;100608.75;;;12.23;63.92
829;BME280;396;52.558;13.188;2023-05-10T03:15:07;100600.88;;;12.13;64.67
829;BME280;396;52.558;13.188;2023-05-10T03:17:42;100589.88;;;12.18;65.25
829;BME280;396;52.558;13.188;2023-05-10T03:20:11;100596.91;;;12.19;65.61
829;BME280;396;52.558;13.188;2023-05-10T03:22:45;100600.56;;;12.15;66.17
829;BME280;396;52.558;13.188;2023-05-10T03:25:15;100597.66;;;12.11;65.77
829;BME280;396;52.558;13.188;2023-05-10T03:27:43;100592.22;;;12.11;66.30
829;BME280;396;52.558;13.188;2023-05-10T03:30:11;100597.31;;;12.12;66.01
829;BME280;396;52.558;13.188;2023-05-10T03:32:39;100603.88;;;12.11;66.71
829;BME280;396;52.558;13.188;2023-05-10T03:35:06;100585.34;;;12.05;66.86
829;BME280;396;52.558;13.188;2023-05-10T03:37:33;100597.41;;;11.99;66.64
829;BME280;396;52.558;13.188;2023-05-10T03:40:00;100589.78;;;12.01;66.29
829;BME280;396;52.558;13.188;2023-05-10T03:42:28;100593.47;;;12.05;66.74
829;BME280;396;52.558;13.188;2023-05-10T03:44:56;100595.38;;;12.04;66.34
829;BME280;396;52.558;13.188;2023-05-10T03:47:22;100593.59;;;12.00;66.44
829;BME280;396;52.558;13.188;2023-05-10T03:49:49;100587.25;;;12.04;66.39
829;BME280;396;52.558;13.188;2023-05-10T03:52:16;100585.94;;;12.02;66.39
829;BME280;396;52.558;13.188;2023-05-10T03:54:43;100590.91;;;12.08;66.16
829;BME280;396;52.558;13.188;2023-05-10T03:57:10;100586.41;;;12.04;66.33
829;BME280;396;52.558;13.188;2023-05-10T03:59:38;100591.56;;;12.05;66.41
829;BME280;396;52.558;13.188;2023-05-10T04:02:04;100580.88;;;12.09;66.45
829;BME280;396;52.558;13.188;2023-05-10T04:04:31;100577.97;;;12.05;66.31
829;BME280;396;52.558;13.188;2023-05-10T04:06:57;100577.66;;;12.07;66.55
829;BME280;396;52.558;13.188;2023-05-10T04:09:24;100578.47;;;12.07;66.16
829;BME280;396;52.558;13.188;2023-05-10T04:11:51;100584.88;;;12.11;65.40
829;BME280;396;52.558;13.188;2023-05-10T04:14:17;100585.19;;;12.10;65.97
829;BME280;396;52.558;13.188;2023-05-10T04:16:45;100577.38;;;12.17;65.64
829;BME280;396;52.558;13.188;2023-05-10T04:19:12;100580.78;;;12.23;66.23
829;BME280;396;52.558;13.188;2023-05-10T04:21:38;100583.97;;;12.25;65.58
829;BME280;396;52.558;13.188;2023-05-10T04:24:05;100585.28;;;12.27;65.42
829;BME280;396;52.558;13.188;2023-05-10T04:26:32;100574.91;;;12.29;65.13
829;BME280;396;52.558;13.188;2023-05-10T04:28:58;100579.09;;;12.35;65.13
829;BME280;396;52.558;13.188;2023-05-10T04:31:25;100566.50;;;12.40;64.78
829;BME280;396;52.558;13.188;2023-05-10T04:33:54;100574.28;;;12.32;63.82
829;BME280;396;52.558;13.188;2023-05-10T04:36:20;100569.03;;;12.36;64.02
829;BME280;396;52.558;13.188;2023-05-10T04:38:47;100580.56;;;12.42;63.61
829;BME280;396;52.558;13.188;2023-05-10T04:41:14;100577.84;;;12.42;63.55
829;BME280;396;52.558;13.188;2023-05-10T04:43:40;100560.22;;;12.39;63.89
829;BME280;396;52.558;13.188;2023-05-10T04:46:07;100572.41;;;12.42;65.05
829;BME280;396;52.558;13.188;2023-05-10T04:48:34;100562.50;;;12.46;63.93
829;BME280;396;52.558;13.188;2023-05-10T04:51:02;100567.97;;;12.54;63.51
829;BME280;396;52.558;13.188;2023-05-10T04:53:30;100561.78;;;12.62;63.49
829;BME280;396;52.558;13.188;2023-05-10T04:55:56;100572.16;;;12.69;63.17
829;BME280;396;52.558;13.188;2023-05-10T04:58:23;100567.09;;;12.76;63.70
829;BME280;396;52.558;13.188;2023-05-10T05:00:49;100568.06;;;12.80;63.55
829;BME280;396;52.558;13.188;2023-05-10T05:03:16;100573.19;;;12.91;63.22
829;BME280;396;52.558;13.188;2023-05-10T05:05:43;100575.75;;;12.96;63.01
829;BME280;396;52.558;13.188;2023-05-10T05:08:11;100566.50;;;13.05;61.87
829;BME280;396;52.558;13.188;2023-05-10T05:10:37;100571.13;;;13.05;62.25
829;BME280;396;52.558;13.188;2023-05-10T05:13:04;100571.47;;;13.12;62.16
829;BME280;396;52.558;13.188;2023-05-10T05:15:31;100571.16;;;13.13;62.32
829;BME280;396;52.558;13.188;2023-05-10T05:17:57;100573.28;;;13.25;60.32
829;BME280;396;52.558;13.188;2023-05-10T05:20:24;100572.00;;;13.31;61.01
829;BME280;396;52.558;13.188;2023-05-10T05:22:50;100562.88;;;13.36;61.78
829;BME280;396;52.558;13.188;2023-05-10T05:25:18;100556.47;;;13.41;62.19
829;BME280;396;52.558;13.188;2023-05-10T05:27:45;100559.19;;;13.41;60.62
829;BME280;396;52.558;13.188;2023-05-10T05:30:12;100561.44;;;13.47;61.66
829;BME280;396;52.558;13.188;2023-05-10T05:32:38;100561.44;;;13.56;60.82
829;BME280;396;52.558;13.188;2023-05-10T05:35:05;100561.44;;;13.65;59.88
829;BME280;396;52.558;13.188;2023-05-10T05:37:32;100559.16;;;13.75;59.85
829;BME280;396;52.558;13.188;2023-05-10T05:39:58;100555.00;;;13.78;58.91
829;BME280;396;52.558;13.188;2023-05-10T05:42:28;100559.13;;;13.93;57.87
829;BME280;396;52.558;13.188;2023-05-10T05:44:54;100560.88;;;13.97;58.47
829;BME280;396;52.558;13.188;2023-05-10T05:47:21;100560.09;;;13.97;59.21
829;BME280;396;52.558;13.188;2023-05-10T05:49:47;100556.38;;;14.01;59.04
829;BME280;396;52.558;13.188;2023-05-10T05:52:14;100564.72;;;14.05;58.50
829;BME280;396;52.558;13.188;2023-05-10T05:54:41;100551.56;;;14.07;58.07
829;BME280;396;52.558;13.188;2023-05-10T05:57:07;100566.47;;;14.09;57.97
829;BME280;396;52.558;13.188;2023-05-10T05:59:35;100560.84;;;14.14;58.35
829;BME280;396;52.558;13.188;2023-05-10T06:02:07;100557.94;;;14.20;58.45
829;BME280;396;52.558;13.188;2023-05-10T06:04:33;100557.75;;;14.25;58.12
829;BME280;396;52.558;13.188;2023-05-10T06:07:00;100573.06;;;14.38;57.78
829;BME280;396;52.558;13.188;2023-05-10T06:09:26;100576.75;;;14.42;58.38
829;BME280;396;52.558;13.188;2023-05-10T06:11:53;100568.38;;;14.47;57.78
829;BME280;396;52.558;13.188;2023-05-10T06:14:20;100572.25;;;14.55;57.09
829;BME280;396;52.558;13.188;2023-05-10T06:16:48;100562.78;;;14.61;56.97
829;BME280;396;52.558;13.188;2023-05-10T06:19:15;100561.94;;;14.60;56.16
829;BME280;396;52.558;13.188;2023-05-10T06:21:41;100566.91;;;14.67;56.67
829;BME280;396;52.558;13.188;2023-05-10T06:24:08;100562.56;;;14.66;57.84
829;BME280;396;52.558;13.188;2023-05-10T06:26:35;100568.00;;;14.75;56.65
829;BME280;396;52.558;13.188;2023-05-10T06:29:02;100562.47;;;14.83;56.33
829;BME280;396;52.558;13.188;2023-05-10T06:31:29;100560.22;;;14.85;56.39
829;BME280;396;52.558;13.188;2023-05-10T06:33:56;100557.28;;;14.91;57.13
829;BME280;396;52.558;13.188;2023-05-10T06:36:23;100566.56;;;14.98;57.16
829;BME280;396;52.558;13.188;2023-05-10T06:38:51;100558.97;;;15.04;56.87
829;BME280;396;52.558;13.188;2023-05-10T06:41:18;100562.44;;;15.13;56.57
829;BME280;396;52.558;13.188;2023-05-10T06:43:44;100555.66;;;15.19;56.03
829;BME280;396;52.558;13.188;2023-05-10T06:46:11;100556.69;;;15.27;56.48
829;BME280;396;52.558;13.188;2023-05-10T06:48:37;100555.63;;;15.40;56.53
829;BME280;396;52.558;13.188;2023-05-10T06:51:05;100558.44;;;15.52;56.76
829;BME280;396;52.558;13.188;2023-05-10T06:53:32;100559.34;;;15.56;54.67
829;BME280;396;52.558;13.188;2023-05-10T06:55:59;100561.09;;;15.61;54.84
829;BME280;396;52.558;13.188;2023-05-10T06:58:25;100567.81;;;15.63;55.39
829;BME280;396;52.558;13.188;2023-05-10T07:00:52;100562.97;;;15.69;54.91
829;BME280;396;52.558;13.188;2023-05-10T07:03:18;100563.81;;;15.82;54.52
829;BME280;396;52.558;13.188;2023-05-10T07:05:45;100563.47;;;15.83;54.70
829;BME280;396;52.558;13.188;2023-05-10T07:08:13;100563.25;;;15.88;53.90
829;BME280;396;52.558;13.188;2023-05-10T07:10:40;100561.00;;;15.91;54.42
829;BME280;396;52.558;13.188;2023-05-10T07:13:06;100552.94;;;15.94;54.85
829;BME280;396;52.558;13.188;2023-05-10T07:15:33;100553.84;;;15.98;53.70
829;BME280;396;52.558;13.188;2023-05-10T07:17:59;100549.38;;;15.94;54.49
829;BME280;396;52.558;13.188;2023-05-10T07:20:26;100549.97;;;15.99;54.76
829;BME280;396;52.558;13.188;2023-05-10T07:22:53;100548.97;;;16.04;54.71
829;BME280;396;52.558;13.188;2023-05-10T07:25:21;100545.09;;;16.17;53.12
829;BME280;396;52.558;13.188;2023-05-10T07:27:47;100540.78;;;16.28;53.47
829;BME280;396;52.558;13.188;2023-05-10T07:30:14;100548.31;;;16.31;54.03
829;BME280;396;52.558;13.188;2023-05-10T07:32:41;100547.41;;;16.39;53.74
829;BME280;396;52.558;13.188;2023-05-10T07:35:08;100552.06;;;16.39;54.06
829;BME280;396;52.558;13.188;2023-05-10T07:37:35;100550.81;;;16.49;53.82
829;BME280;396;52.558;13.188;2023-05-10T07:40:01;100554.91;;;16.55;53.37
829;BME280;396;52.558;13.188;2023-05-10T07:42:29;100553.44;;;16.57;53.35
829;BME280;396;52.558;13.188;2023-05-10T07:44:56;100547.97;;;16.70;53.33
829;BME280;396;52.558;13.188;2023-05-10T07:47:23;100557.00;;;16.82;52.69
829;BME280;396;52.558;13.188;2023-05-10T07:49:49;100557.56;;;16.88;53.24
829;BME280;396;52.558;13.188;2023-05-10T07:52:16;100546.50;;;16.97;52.22
829;BME280;396;52.558;13.188;2023-05-10T07:54:42;100551.13;;;17.08;51.91
829;BME280;396;52.558;13.188;2023-05-10T07:57:09;100564.66;;;17.17;53.09
829;BME280;396;52.558;13.188;2023-05-10T07:59:37;100554.84;;;17.28;52.33
829;BME280;396;52.558;13.188;2023-05-10T08:02:04;100557.09;;;17.38;52.39
829;BME280;396;52.558;13.188;2023-05-10T08:04:30;100560.94;;;17.50;52.25
829;BME280;396;52.558;13.188;2023-05-10T08:06:57;100564.66;;;17.57;51.81
829;BME280;396;52.558;13.188;2023-05-10T08:09:24;100561.06;;;17.69;50.73
829;BME280;396;52.558;13.188;2023-05-10T08:11:50;100559.84;;;17.67;50.71
829;BME280;396;52.558;13.188;2023-05-10T08:14:17;100571.47;;;17.76;50.00
829;BME280;396;52.558;13.188;2023-05-10T08:16:45;100559.50;;;17.68;51.19
829;BME280;396;52.558;13.188;2023-05-10T08:19:11;100567.94;;;17.75;51.22
829;BME280;396;52.558;13.188;2023-05-10T08:21:38;100554.69;;;17.77;51.67
829;BME280;396;52.558;13.188;2023-05-10T08:24:06;100563.78;;;17.81;51.02
829;BME280;396;52.558;13.188;2023-05-10T08:26:33;100564.22;;;17.83;51.01
829;BME280;396;52.558;13.188;2023-05-10T08:28:59;100567.59;;;17.93;50.72
829;BME280;396;52.558;13.188;2023-05-10T08:31:26;100564.63;;;17.98;50.05
829;BME280;396;52.558;13.188;2023-05-10T08:33:54;100563.28;;;17.92;51.00
829;BME280;396;52.558;13.188;2023-05-10T08:36:21;100565.31;;;17.95;50.75
829;BME280;396;52.558;13.188;2023-05-10T08:38:50;100575.34;;;18.03;49.68
829;BME280;396;52.558;13.188;2023-05-10T08:41:18;100577.53;;;18.13;49.07
829;BME280;396;52.558;13.188;2023-05-10T08:43:46;100566.59;;;18.13;51.35
829;BME280;396;52.558;13.188;2023-05-10T08:46:16;100573.38;;;18.19;51.03
829;BME280;396;52.558;13.188;2023-05-10T08:48:44;100562.88;;;18.21;50.99
829;BME280;396;52.558;13.188;2023-05-10T08:51:15;100575.25;;;18.31;50.34
829;BME280;396;52.558;13.188;2023-05-10T08:53:44;100569.50;;;18.52;48.19
829;BME280;396;52.558;13.188;2023-05-10T08:56:10;100583.31;;;18.55;48.85
829;BME280;396;52.558;13.188;2023-05-10T08:58:37;100582.59;;;18.58;48.69
829;BME280;396;52.558;13.188;2023-05-10T09:01:05;100572.50;;;18.62;48.93
829;BME280;396;52.558;13.188;2023-05-10T09:03:32;100571.56;;;18.71;49.36
829;BME280;396;52.558;13.188;2023-05-10T09:05:58;100574.38;;;18.74;49.61
829;BME280;396;52.558;13.188;2023-05-10T09:08:26;100573.41;;;18.82;50.23
829;BME280;396;52.558;13.188;2023-05-10T09:10:54;100574.97;;;18.99;49.33
829;BME280;396;52.558;13.188;2023-05-10T09:13:23;100579.09;;;19.09;50.23
829;BME280;396;52.558;13.188;2023-05-10T09:15:50;100578.34;;;19.12;48.94
829;BME280;396;52.558;13.188;2023-05-10T09:18:17;100581.09;;;19.12;49.24
829;BME280;396;52.558;13.188;2023-05-10T09:20:44;100577.38;;;19.20;48.44
829;BME280;396;52.558;13.188;2023-05-10T09:23:11;100571.44;;;19.18;48.13
829;BME280;396;52.558;13.188;2023-05-10T09:25:41;100586.47;;;19.24;47.25
829;BME280;396;52.558;13.188;2023-05-10T09:28:08;100584.31;;;19.33;48.01
829;BME280;396;52.558;13.188;2023-05-10T09:30:35;100577.75;;;19.38;48.07
829;BME280;396;52.558;13.188;2023-05-10T09:33:02;100578.41;;;19.51;49.12
829;BME280;396;52.558;13.188;2023-05-10T09:35:30;100579.16;;;19.67;49.25
829;BME280;396;52.558;13.188;2023-05-10T09:37:59;100592.44;;;19.84;48.28
829;BME280;396;52.558;13.188;2023-05-10T09:40:27;100586.34;;;19.95;47.66
829;BME280;396;52.558;13.188;2023-05-10T09:42:57;100584.47;;;19.99;46.28
829;BME280;396;52.558;13.188;2023-05-10T09:45:25;100577.38;;;19.98;47.66
829;BME280;396;52.558;13.188;2023-05-10T09:47:52;100592.84;;;20.06;48.69
829;BME280;396;52.558;13.188;2023-05-10T09:50:20;100592.09;;;20.09;48.30
829;BME280;396;52.558;13.188;2023-05-10T09:52:48;100591.81;;;20.14;46.08
829;BME280;396;52.558;13.188;2023-05-10T09:55:16;100590.97;;;20.10;47.35
829;BME280;396;52.558;13.188;2023-05-10T09:57:43;100587.47;;;20.13;46.18
829;BME280;396;52.558;13.188;2023-05-10T10:00:16;100585.56;;;20.17;47.42
829;BME280;396;52.558;13.188;2023-05-10T10:02:45;100581.78;;;20.25;47.26
829;BME280;396;52.558;13.188;2023-05-10T10:05:12;100587.00;;;20.30;46.14
829;BME280;396;52.558;13.188;2023-05-10T10:07:39;100595.00;;;20.39;46.29
829;BME280;396;52.558;13.188;2023-05-10T10:10:07;100592.72;;;20.45;47.07
829;BME280;396;52.558;13.188;2023-05-10T10:12:36;100593.97;;;20.47;47.43
829;BME280;396;52.558;13.188;2023-05-10T10:15:04;100591.78;;;20.56;46.56
829;BME280;396;52.558;13.188;2023-05-10T10:17:35;100590.34;;;20.66;46.27
829;BME280;396;52.558;13.188;2023-05-10T10:20:02;100590.16;;;20.78;44.39
829;BME280;396;52.558;13.188;2023-05-10T10:22:29;100578.44;;;20.85;47.40
829;BME280;396;52.558;13.188;2023-05-10T10:24:56;100576.25;;;20.94;46.67
829;BME280;396;52.558;13.188;2023-05-10T10:27:25;100578.28;;;21.01;46.19
829;BME280;396;52.558;13.188;2023-05-10T10:30:01;100575.94;;;21.03;46.00
829;BME280;396;52.558;13.188;2023-05-10T10:32:57;100585.69;;;21.23;44.52
829;BME280;396;52.558;13.188;2023-05-10T10:35:28;100576.78;;;21.33;45.57
829;BME280;396;52.558;13.188;2023-05-10T10:37:55;100581.59;;;21.40;44.43
829;BME280;396;52.558;13.188;2023-05-10T10:40:24;100582.06;;;21.46;45.27
829;BME280;396;52.558;13.188;2023-05-10T10:42:51;100582.56;;;21.55;45.74
829;BME280;396;52.558;13.188;2023-05-10T10:45:19;100583.25;;;21.78;44.93
829;BME280;396;52.558;13.188;2023-05-10T10:47:46;100586.06;;;21.85;44.52
829;BME280;396;52.558;13.188;2023-05-10T10:50:14;100579.09;;;21.99;43.50
829;BME280;396;52.558;13.188;2023-05-10T10:52:42;100578.41;;;22.09;43.28
829;BME280;396;52.558;13.188;2023-05-10T10:55:10;100574.69;;;22.28;45.29
829;BME280;396;52.558;13.188;2023-05-10T10:57:48;100577.19;;;22.44;42.62
829;BME280;396;52.558;13.188;2023-05-10T11:00:19;100575.66;;;22.50;43.10
829;BME280;396;52.558;13.188;2023-05-10T11:02:47;100578.53;;;22.64;44.95
829;BME280;396;52.558;13.188;2023-05-10T11:05:40;100573.63;;;22.91;44.24
829;BME280;396;52.558;13.188;2023-05-10T11:08:13;100585.22;;;23.18;42.42
829;BME280;396;52.558;13.188;2023-05-10T11:10:40;100578.59;;;23.33;41.19
829;BME280;396;52.558;13.188;2023-05-10T11:13:15;100579.00;;;23.46;41.47
829;BME280;396;52.558;13.188;2023-05-10T11:15:48;100585.13;;;23.98;40.25
829;BME280;396;52.558;13.188;2023-05-10T11:18:19;100578.06;;;24.83;41.38
829;BME280;396;52.558;13.188;2023-05-10T11:20:51;100575.91;;;25.48;38.29
829;BME280;396;52.558;13.188;2023-05-10T11:23:19;100570.44;;;26.07;37.50
829;BME280;396;52.558;13.188;2023-05-10T11:25:47;100577.72;;;26.38;36.79
829;BME280;396;52.558;13.188;2023-05-10T11:28:16;100583.97;;;26.57;34.85
829;BME280;396;52.558;13.188;2023-05-10T11:30:43;100574.00;;;26.63;35.68
829;BME280;396;52.558;13.188;2023-05-10T11:33:15;100585.50;;;27.03;35.68
829;BME280;396;52.558;13.188;2023-05-10T11:35:42;100593.63;;;27.28;33.82
829;BME280;396;52.558;13.188;2023-05-10T11:38:10;100585.72;;;27.23;33.75
829;BME280;396;52.558;13.188;2023-05-10T11:40:38;100582.78;;;27.37;33.69
829;BME280;396;52.558;13.188;2023-05-10T11:43:05;100582.63;;;27.13;34.89
829;BME280;396;52.558;13.188;2023-05-10T11:45:32;100571.25;;;27.65;33.22
829;BME280;396;52.558;13.188;2023-05-10T11:47:59;100579.81;;;28.09;32.81
829;BME280;396;52.558;13.188;2023-05-10T11:50:26;100585.59;;;28.22;33.31
829;BME280;396;52.558;13.188;2023-05-10T11:52:53;100586.53;;;28.62;32.14
829;BME280;396;52.558;13.188;2023-05-10T11:55:21;100583.84;;;29.02;31.67
829;BME280;396;52.558;13.188;2023-05-10T11:57:51;100590.25;;;29.62;31.56
829;BME280;396;52.558;13.188;2023-05-10T12:00:18;100593.22;;;29.71;30.39
829;BME280;396;52.558;13.188;2023-05-10T12:02:45;100577.56;;;29.94;30.45
829;BME280;396;52.558;13.188;2023-05-10T12:05:12;100594.13;;;30.21;30.45
829;BME280;396;52.558;13.188;2023-05-10T12:07:39;100590.63;;;30.17;29.74
829;BME280;396;52.558;13.188;2023-05-10T12:10:06;100591.94;;;30.28;29.51
829;BME280;396;52.558;13.188;2023-05-10T12:12:39;100587.66;;;29.87;29.63
829;BME280;396;52.558;13.188;2023-05-10T12:15:10;100599.66;;;30.04;31.05
829;BME280;396;52.558;13.188;2023-05-10T12:17:37;100597.50;;;30.45;29.87
829;BME280;396;52.558;13.188;2023-05-10T12:20:15;100589.56;;;30.59;28.52
829;BME280;396;52.558;13.188;2023-05-10T12:22:44;100597.75;;;31.12;28.68
829;BME280;396;52.558;13.188;2023-05-10T12:25:11;100598.09;;;31.43;28.56
829;BME280;396;52.558;13.188;2023-05-10T12:27:39;100599.94;;;31.62;27.95
829;BME280;396;52.558;13.188;2023-05-10T12:30:07;100596.38;;;31.62;27.75
829;BME280;396;52.558;13.188;2023-05-10T12:32:37;100596.78;;;30.89;28.47
829;BME280;396;52.558;13.188;2023-05-10T12:35:04;100598.56;;;30.18;28.85
829;BME280;396;52.558;13.188;2023-05-10T12:37:31;100605.13;;;30.44;29.34
829;BME280;396;52.558;13.188;2023-05-10T12:40:01;100595.94;;;30.76;29.13
829;BME280;396;52.558;13.188;2023-05-10T12:42:30;100609.16;;;31.05;28.08
829;BME280;396;52.558;13.188;2023-05-10T12:44:58;100606.63;;;31.39;27.77
829;BME280;396;52.558;13.188;2023-05-10T12:47:24;100605.28;;;31.44;27.73
829;BME280;396;52.558;13.188;2023-05-10T12:49:51;100611.03;;;31.66;27.47
829;BME280;396;52.558;13.188;2023-05-10T12:52:17;100608.94;;;31.96;26.73
829;BME280;396;52.558;13.188;2023-05-10T12:54:44;100612.56;;;31.83;26.90
829;BME280;396;52.558;13.188;2023-05-10T12:57:11;100610.25;;;31.53;27.10
829;BME280;396;52.558;13.188;2023-05-10T12:59:37;100617.13;;;31.35;27.35
829;BME280;396;52.558;13.188;2023-05-10T13:02:05;100605.41;;;31.24;27.38
829;BME280;396;52.558;13.188;2023-05-10T13:04:32;100604.84;;;31.46;28.17
829;BME280;396;52.558;13.188;2023-05-10T13:06:59;100603.91;;;32.03;27.38
829;BME280;396;52.558;13.188;2023-05-10T13:09:26;100599.28;;;32.48;27.20
829;BME280;396;52.558;13.188;2023-05-10T13:11:54;100607.75;;;31.97;27.15
829;BME280;396;52.558;13.188;2023-05-10T13:14:21;100593.69;;;31.71;26.08
829;BME280;396;52.558;13.188;2023-05-10T13:16:48;100605.47;;;31.92;27.32
829;BME280;396;52.558;13.188;2023-05-10T13:19:16;100595.25;;;31.72;27.07
829;BME280;396;52.558;13.188;2023-05-10T13:21:43;100599.59;;;31.60;26.61
829;BME280;396;52.558;13.188;2023-05-10T13:24:10;100594.91;;;31.70;26.72
829;BME280;396;52.558;13.188;2023-05-10T13:26:39;100599.50;;;31.77;26.73
829;BME280;396;52.558;13.188;2023-05-10T13:29:05;100596.13;;;31.69;27.30